Etusivu
METAR-TAF:

METAR-TAF

Lentoasemat :

Owatonna Degner Regional Airport

Owatonna, Minnesota, Yhdysvallat

Leveyspiiri: 44-07N, Pituuspiiri: 093-15W, korkeus merenpinnasta: 350 m

Tämänhetkinen sää

Tämä raportti tehtiin 12 minuuttia sitten, kello 13.13 UTC
Tuuli 4 kn lännestä/lounaasta
Lämpötila 12°C
Kosteus 76%
Ilmanpaine 1006 hPa
Näkyvyys: 16.1 km
selkeää

METAR: KOWA 271313Z AUTO 25004KT 10SM CLR 12/08 A2972 RMK AO2

Aika: 08:25 (13:25 UTC)


TAF: puuttuu

Säähavainnot ja -ennusteet yli 4000 lentoasemalta (METAR- ja TAF-raportit).

Käytössä olevat sääasemat on merkitty karttaan keltaisilla ja punaisilla pisteillä.

Aseta hiiri pisteen päälle nähdäksesi sääaseman nimen.

Klikkaa sitten nähdäksesi säähavainnot ja -ennusteet.

Kartan vaihtaminen: klikkaa mustalla rastilla varustettuja vihreitä pisteitä, niin voit zoomata sisään; viivalla varustettua vihreää pistettä, niin voit zoomata ulos tai vihreitä nuolia, niin pääset viereisille kartoille.


METAR-TAF: